Thor Heyerdahl — DKQH — position and weather

sailwx.info

Track history (hours):
 
Tides and Currents Weather Stations Pressure Air Temp Water Temp Dewpoint Dewpoint Depression Visibility Wind Speed Wind Dir Waves Ship Positions

Thor Heyerdahl

Last reported at 2017-Apr-21 07:49 UTC. Time now 2017-Apr-24 13:06 UTC.
Position N 54°05' E 009°19'.

beam 6.5 m; draft 2.2 m.

Type: Sailing vessel. MMSI: 211232340.

Date/timePositionNaut miles runAvg speedWind from/ knotsBaromVisibWave heightAir tempDewpointWater temp
2017-Apr-21 07:49N 54°05' E 009°19'2 6.9
2017-Apr-21 07:30N 54°03' E 009°18'3 6.6
2017-Apr-21 07:00N 53°60' E 009°18'3 6.5
2017-Apr-21 06:30N 53°57' E 009°14'3 6.0
2017-Apr-21 06:01N 53°55' E 009°11'1 2.4
2017-Apr-21 05:29N 53°54' E 009°09'0 0.0
2017-Apr-21 04:56N 53°54' E 009°09'0 0.0
2017-Apr-21 04:29N 53°54' E 009°09'0 0.0
2017-Apr-21 03:53N 53°54' E 009°09'0 0.0
2017-Apr-21 03:26N 53°54' E 009°09'0 0.0
2017-Apr-21 02:59N 53°54' E 009°09'0 0.0
2017-Apr-21 02:29N 53°54' E 009°09'0 0.0
2017-Apr-21 01:59N 53°54' E 009°09'0 0.0
2017-Apr-21 01:29N 53°54' E 009°09'0 0.0
2017-Apr-21 00:59N 53°54' E 009°09'0 0.0
2017-Apr-21 00:29N 53°54' E 009°09'0 0.0
2017-Apr-20 23:56N 53°54' E 009°09'0 0.0
2017-Apr-20 23:29N 53°54' E 009°09'0 0.0
2017-Apr-20 22:59N 53°54' E 009°09'0 0.0
2017-Apr-20 22:29N 53°54' E 009°09'0 0.0
2017-Apr-20 21:59N 53°54' E 009°09'0 0.0
2017-Apr-20 21:29N 53°54' E 009°09'0 0.0
2017-Apr-20 20:59N 53°54' E 009°09'0 0.0
2017-Apr-20 20:29N 53°54' E 009°09'0 0.0
2017-Apr-20 19:59N 53°54' E 009°09'0 0.0
2017-Apr-20 19:29N 53°54' E 009°09'0 0.0
2017-Apr-20 18:59N 53°54' E 009°09'0 0.0
2017-Apr-20 18:29N 53°54' E 009°09'0 0.0
2017-Apr-20 17:59N 53°54' E 009°09'0 0.0
2017-Apr-20 17:29N 53°54' E 009°09'0 0.0
2017-Apr-20 16:59N 53°54' E 009°09'0 0.0
2017-Apr-20 16:29N 53°54' E 009°09'0 0.0
2017-Apr-20 15:59N 53°54' E 009°09'0 0.0
2017-Apr-20 15:29N 53°54' E 009°09'0 0.0
2017-Apr-20 14:59N 53°54' E 009°09'0 0.0
2017-Apr-20 14:29N 53°54' E 009°09'0 0.0
2017-Apr-20 13:26N 53°54' E 009°09'0 0.0
2017-Apr-20 12:56N 53°54' E 009°09'0 0.0
2017-Apr-20 12:29N 53°54' E 009°09'0 0.0
2017-Apr-20 11:53N 53°54' E 009°09'0 0.0
2017-Apr-20 11:29N 53°54' E 009°09'0 0.0
2017-Apr-20 10:59N 53°54' E 009°09'0 0.0
2017-Apr-20 10:29N 53°54' E 009°09'0 0.0
2017-Apr-20 09:56N 53°54' E 009°09'0 0.0
2017-Apr-20 09:29N 53°54' E 009°09'0 0.0
2017-Apr-20 08:59N 53°54' E 009°09'0 0.0
2017-Apr-20 08:26N 53°54' E 009°09'0 0.0
2017-Apr-20 07:56N 53°54' E 009°09'0 0.0
2017-Apr-20 07:29N 53°54' E 009°09'0 0.0
2017-Apr-20 06:56N 53°54' E 009°09'0 0.0
2017-Apr-20 06:29N 53°54' E 009°09'0 0.0
2017-Apr-20 05:59N 53°54' E 009°09'1 1.4
2017-Apr-20 05:31N 53°54' E 009°09'0 0.7
2017-Apr-20 05:00N 53°53' E 009°09'3 6.9
2017-Apr-20 04:31N 53°52' E 009°03'4 7.6
2017-Apr-20 04:01N 53°51' E 008°57'4 7.5
2017-Apr-20 03:30N 53°50' E 008°51'4 7.0
2017-Apr-20 03:00N 53°51' E 008°45'3 6.7
2017-Apr-20 02:30N 53°54' E 008°42'3 6.0
2017-Apr-20 02:00N 53°56' E 008°39'3 5.8
2017-Apr-20 01:30N 53°58' E 008°35'3 5.7
2017-Apr-20 01:00N 53°58' E 008°30'2 5.0
2017-Apr-20 00:30N 53°59' E 008°26'2 4.5
2017-Apr-20 00:00N 53°59' E 008°22'2 4.5
2017-Apr-19 23:30N 53°59' E 008°18'3 6.0
2017-Apr-19 23:00N 53°59' E 008°13'3 5.7
2017-Apr-19 22:30N 53°59' E 008°08'3 5.4
2017-Apr-19 22:00N 53°58' E 008°04'2 4.7
2017-Apr-19 21:30N 53°58' E 007°60'2 3.8
2017-Apr-19 21:00N 53°57' E 007°57'2 4.0
2017-Apr-19 20:30N 53°57' E 007°53'2 3.9
2017-Apr-19 20:00N 53°56' E 007°50'95 4.6
2017-Apr-18 23:27N 53°31' E 005°14'2 3.8
2017-Apr-18 22:59N 53°31' E 005°12'2 4.1
2017-Apr-18 22:29N 53°30' E 005°08'2 4.3
2017-Apr-18 22:00N 53°29' E 005°05'2 4.4
2017-Apr-18 21:30N 53°28' E 005°02'3 4.1
2017-Apr-18 20:46N 53°27' E 004°57'1 3.8
2017-Apr-18 20:28N 53°27' E 004°55'21 3.5
2017-Apr-18 14:30N 53°11' E 004°32'3 2.4
2017-Apr-18 13:14N 53°09' E 004°29'0 1.5
2017-Apr-18 12:59N 53°08' E 004°29'1 2.1
2017-Apr-18 12:28N 53°07' E 004°28'1 2.8
2017-Apr-18 11:59N 53°06' E 004°27'2 3.6
2017-Apr-18 11:19N 53°04' E 004°25'3 4.1
2017-Apr-18 10:35N 53°01' E 004°23'0 3.8
2017-Apr-18 10:30N 53°01' E 004°23'2 4.4
2017-Apr-18 10:00N 52°59' E 004°22'3 4.9
2017-Apr-18 09:28N 52°57' E 004°20'2 4.5
2017-Apr-18 09:00N 52°55' E 004°18'2 4.6
2017-Apr-18 08:30N 52°53' E 004°16'3 5.1
2017-Apr-18 08:00N 52°51' E 004°13'2 4.9
2017-Apr-18 07:30N 52°49' E 004°11'2 5.0
2017-Apr-18 07:00N 52°47' E 004°08'2 5.0
2017-Apr-18 06:30N 52°45' E 004°06'2 4.9
2017-Apr-18 06:00N 52°43' E 004°03'2 4.6
2017-Apr-18 05:30N 52°41' E 004°01'2 4.4
2017-Apr-18 05:00N 52°40' E 003°58'2 4.0
2017-Apr-18 04:30N 52°38' E 003°56'2 4.0
2017-Apr-18 04:00N 52°37' E 003°54'2 4.2
2017-Apr-18 03:30N 52°35' E 003°52'2 3.7
2017-Apr-18 03:01N 52°34' E 003°49'2 4.1
2017-Apr-18 02:27N 52°32' E 003°47'77 4.0
2017-Apr-17 07:08N 51°42' E 002°11'2 3.3
2017-Apr-17 06:40N 51°41' E 002°10'1 3.4
2017-Apr-17 06:30N 51°41' E 002°09'2 4.1
2017-Apr-17 06:00N 51°39' E 002°07'2 4.6
2017-Apr-17 05:30N 51°38' E 002°04'2 4.6
2017-Apr-17 05:00N 51°36' E 002°01'2 3.3
2017-Apr-17 04:30N 51°36' E 001°59'2 3.2
2017-Apr-17 04:01N 51°36' E 001°56'2 4.4
2017-Apr-17 03:30N 51°34' E 001°53'3 5.5
2017-Apr-17 03:00N 51°33' E 001°50'3 5.6
2017-Apr-17 02:31N 51°32' E 001°45'3 5.1
2017-Apr-17 02:00N 51°31' E 001°41'3 6.2
2017-Apr-17 01:30N 51°30' E 001°37'3 6.0
2017-Apr-17 01:01N 51°29' E 001°32'3 5.3
2017-Apr-17 00:30N 51°29' E 001°28'3 5.5
2017-Apr-17 00:00N 51°28' E 001°24'3 5.6
2017-Apr-16 23:30N 51°29' E 001°19'3 6.1
2017-Apr-16 23:00N 51°29' E 001°14'3 6.2
2017-Apr-16 22:30N 51°29' E 001°09'3 6.7
2017-Apr-16 22:00N 51°29' E 001°04'4 7.9
2017-Apr-16 21:30N 51°29' E 000°58'4 7.4
2017-Apr-16 21:00N 51°29' E 000°52'4 8.8
2017-Apr-16 20:30N 51°30' E 000°45'5 9.2
2017-Apr-16 20:00N 51°30' E 000°37'5 9.6
2017-Apr-16 19:30N 51°30' E 000°30'4 8.7
2017-Apr-16 19:01N 51°27' E 000°25'4 8.4
2017-Apr-16 18:30N 51°28' E 000°18'4 8.2
2017-Apr-16 18:00N 51°29' E 000°12'4 8.0
2017-Apr-16 17:30N 51°31' E 000°06'3 6.2
2017-Apr-16 17:00N 51°30' E 000°01'1 0.6
2017-Apr-16 15:30N 51°29' W 000°00'3 5.3
2017-Apr-16 15:00N 51°30' E 000°04'0 0.1
2017-Apr-16 12:20N 51°30' E 000°04'0 0.0
2017-Apr-16 07:20N 51°30' E 000°04'0 0.0
2017-Apr-16 06:56N 51°30' E 000°04'0 0.0
2017-Apr-16 04:05N 51°30' E 000°04'0 0.0
2017-Apr-16 03:44N 51°30' E 000°04'0 0.0
2017-Apr-16 01:56N 51°30' E 000°04'0 0.0
2017-Apr-16 01:26N 51°30' E 000°04'0 0.0
2017-Apr-16 00:53N 51°30' E 000°04'0 0.0
2017-Apr-16 00:26N 51°30' E 000°04'0 0.0
2017-Apr-15 23:47N 51°30' E 000°04'0 0.0
2017-Apr-15 23:26N 51°30' E 000°04'0 0.0
2017-Apr-15 22:59N 51°30' E 000°04'0 0.0
2017-Apr-15 22:23N 51°30' E 000°04'0 0.0
2017-Apr-15 21:02N 51°30' E 000°04'0 0.0
2017-Apr-15 20:56N 51°30' E 000°04'0 0.0
2017-Apr-15 20:29N 51°30' E 000°04'0 0.0
2017-Apr-15 12:14N 51°30' E 000°04'0 0.0
2017-Apr-15 10:08N 51°30' E 000°04'0 0.0
2017-Apr-15 09:50N 51°30' E 000°04'0 0.0
2017-Apr-15 08:59N 51°30' E 000°04'0 0.0
2017-Apr-15 08:17N 51°30' E 000°04'0 0.0
2017-Apr-15 07:56N 51°30' E 000°04'0 0.0
2017-Apr-15 01:41N 51°30' E 000°04'0 0.0
2017-Apr-15 01:17N 51°30' E 000°04'0 0.0
2017-Apr-15 00:56N 51°30' E 000°04'0 0.0
2017-Apr-15 00:20N 51°30' E 000°04'0 0.0
2017-Apr-14 23:17N 51°30' E 000°04'0 0.0
2017-Apr-14 22:56N 51°30' E 000°04'0 0.0
2017-Apr-14 22:26N 51°30' E 000°04'0 0.0
2017-Apr-14 21:08N 51°30' E 000°04'0 0.0
2017-Apr-14 20:53N 51°30' E 000°04'0 0.0
2017-Apr-14 16:05N 51°30' E 000°04'0 0.0
2017-Apr-14 15:53N 51°30' E 000°04'0 0.0
2017-Apr-14 15:29N 51°30' E 000°04'0 0.0
2017-Apr-14 14:53N 51°30' E 000°04'0 0.0
2017-Apr-14 13:53N 51°30' E 000°04'0 0.0
2017-Apr-14 13:26N 51°30' E 000°04'0 0.8
2017-Apr-14 13:00N 51°30' E 000°04'0 0.1
2017-Apr-14 12:30N 51°30' E 000°04'2 4.5
2017-Apr-14 12:00N 51°30' E 000°00'1 0.1
2017-Apr-14 02:32N 51°29' W 000°00'1 0.1
2017-Apr-13 11:56N 51°30' W 000°00'3 6.7
2017-Apr-13 11:31N 51°30' E 000°04'4 7.8
2017-Apr-13 11:00N 51°30' E 000°10'4 8.4
2017-Apr-13 10:30N 51°28' E 000°16'4 7.2
2017-Apr-13 10:00N 51°27' E 000°22'3 6.7
2017-Apr-13 09:31N 51°28' E 000°27'3 6.6
2017-Apr-13 09:01N 51°30' E 000°31'3 6.6
2017-Apr-13 08:30N 51°30' E 000°36'3 6.2
2017-Apr-13 08:00N 51°30' E 000°41'3 6.0
2017-Apr-13 07:30N 51°30' E 000°46'3 5.5
2017-Apr-13 06:59N 51°30' E 000°50'3 5.5
2017-Apr-13 06:30N 51°30' E 000°54'2 4.2
2017-Apr-13 06:00N 51°30' E 000°58'0 0.1
2017-Apr-13 04:30N 51°30' E 000°58'0 0.0
2017-Apr-13 02:36N 51°30' E 000°58'0 0.1
2017-Apr-13 02:30N 51°30' E 000°58'0 0.0
2017-Apr-13 01:57N 51°30' E 000°58'0 0.1
2017-Apr-13 01:30N 51°30' E 000°58'0 0.0
2017-Apr-12 22:54N 51°30' E 000°58'0 0.0
2017-Apr-12 22:24N 51°30' E 000°58'0 0.0
2017-Apr-12 22:00N 51°30' E 000°58'0 0.0
2017-Apr-12 21:30N 51°30' E 000°58'0 0.0
2017-Apr-12 20:54N 51°30' E 000°58'0 0.1
2017-Apr-12 20:27N 51°30' E 000°58'0 0.1
2017-Apr-12 20:00N 51°30' E 000°58'0 0.0
2017-Apr-12 18:42N 51°30' E 000°58'0 0.0
2017-Apr-12 16:45N 51°30' E 000°58'0 0.0
2017-Apr-12 13:30N 51°30' E 000°58'0 0.1
2017-Apr-12 13:00N 51°30' E 000°58'0 0.1
2017-Apr-12 12:24N 51°30' E 000°58'0 0.1
2017-Apr-12 12:00N 51°30' E 000°58'0 0.2
2017-Apr-12 11:30N 51°30' E 000°58'0 0.1
2017-Apr-12 11:00N 51°30' E 000°58'0 0.0
2017-Apr-12 10:30N 51°30' E 000°58'0 0.0
2017-Apr-12 10:00N 51°30' E 000°58'0 0.1
2017-Apr-12 09:31N 51°30' E 000°58'1 2.4
2017-Apr-12 09:00N 51°29' E 000°57'3 6.0
2017-Apr-12 08:30N 51°29' E 001°02'3 5.3
2017-Apr-12 08:00N 51°30' E 001°06'2 4.9
2017-Apr-12 07:30N 51°29' E 001°10'2 4.9
2017-Apr-12 07:00N 51°29' E 001°14'2 4.7
2017-Apr-12 06:30N 51°29' E 001°17'2 4.2
2017-Apr-12 06:00N 51°29' E 001°21'2 3.7
2017-Apr-12 05:28N 51°28' E 001°24'1 3.2
2017-Apr-12 05:00N 51°28' E 001°26'1 2.7
2017-Apr-12 04:31N 51°28' E 001°28'2 3.3
2017-Apr-12 04:00N 51°26' E 001°30'2 4.0
2017-Apr-12 03:30N 51°25' E 001°32'2 4.7
2017-Apr-12 03:00N 51°23' E 001°34'3 5.3
2017-Apr-12 02:31N 51°21' E 001°37'3 6.1
2017-Apr-12 02:00N 51°18' E 001°39'3 6.6
2017-Apr-12 01:31N 51°15' E 001°42'4 7.8
2017-Apr-12 01:00N 51°11' E 001°43'4 8.3
2017-Apr-12 00:30N 51°07' E 001°42'510.0
2017-Apr-12 00:01N 51°04' E 001°37'5 9.2
2017-Apr-11 23:31N 51°01' E 001°31'4 8.3
2017-Apr-11 23:01N 50°58' E 001°27'4 8.3
2017-Apr-11 22:28N 50°53' E 001°24'5 8.6
2017-Apr-11 21:51N 50°48' E 001°22'53 5.9
2017-Apr-11 12:50N 50°21' E 000°10'2 6.1
2017-Apr-11 12:28N 50°21' E 000°07'3 6.6
2017-Apr-11 12:00N 50°20' E 000°02'4 7.0
2017-Apr-11 11:22N 50°19' W 000°05'2 5.3
2017-Apr-11 10:59N 50°18' W 000°08'3 3.5
2017-Apr-11 10:12N 50°18' W 000°12'1 4.4
2017-Apr-11 09:57N 50°17' W 000°14'  
Track history (hours):
 
Tides and Currents Weather Stations Pressure Air Temp Water Temp Dewpoint Dewpoint Depression Visibility Wind Speed Wind Dir Waves Ship Positions

Thor Heyerdahl

Last reported at 2017-Apr-21 07:49 UTC. Time now 2017-Apr-24 13:06 UTC.
Position N 54°05' E 009°19'.

beam 6.5 m; draft 2.2 m.

Type: Sailing vessel. MMSI: 211232340.

Date/timePositionNaut miles runAvg speedWind from/ knotsBaromVisibWave heightAir tempDewpointWater temp
2017-Apr-21 07:49N 54°05' E 009°19'2 6.9
2017-Apr-21 07:30N 54°03' E 009°18'3 6.6
2017-Apr-21 07:00N 53°60' E 009°18'3 6.5
2017-Apr-21 06:30N 53°57' E 009°14'3 6.0
2017-Apr-21 06:01N 53°55' E 009°11'1 2.4
2017-Apr-21 05:29N 53°54' E 009°09'0 0.0
2017-Apr-21 04:56N 53°54' E 009°09'0 0.0
2017-Apr-21 04:29N 53°54' E 009°09'0 0.0
2017-Apr-21 03:53N 53°54' E 009°09'0 0.0
2017-Apr-21 03:26N 53°54' E 009°09'0 0.0
2017-Apr-21 02:59N 53°54' E 009°09'0 0.0
2017-Apr-21 02:29N 53°54' E 009°09'0 0.0
2017-Apr-21 01:59N 53°54' E 009°09'0 0.0
2017-Apr-21 01:29N 53°54' E 009°09'0 0.0
2017-Apr-21 00:59N 53°54' E 009°09'0 0.0
2017-Apr-21 00:29N 53°54' E 009°09'0 0.0
2017-Apr-20 23:56N 53°54' E 009°09'0 0.0
2017-Apr-20 23:29N 53°54' E 009°09'0 0.0
2017-Apr-20 22:59N 53°54' E 009°09'0 0.0
2017-Apr-20 22:29N 53°54' E 009°09'0 0.0
2017-Apr-20 21:59N 53°54' E 009°09'0 0.0
2017-Apr-20 21:29N 53°54' E 009°09'0 0.0
2017-Apr-20 20:59N 53°54' E 009°09'0 0.0
2017-Apr-20 20:29N 53°54' E 009°09'0 0.0
2017-Apr-20 19:59N 53°54' E 009°09'0 0.0
2017-Apr-20 19:29N 53°54' E 009°09'0 0.0
2017-Apr-20 18:59N 53°54' E 009°09'0 0.0
2017-Apr-20 18:29N 53°54' E 009°09'0 0.0
2017-Apr-20 17:59N 53°54' E 009°09'0 0.0
2017-Apr-20 17:29N 53°54' E 009°09'0 0.0
2017-Apr-20 16:59N 53°54' E 009°09'0 0.0
2017-Apr-20 16:29N 53°54' E 009°09'0 0.0
2017-Apr-20 15:59N 53°54' E 009°09'0 0.0
2017-Apr-20 15:29N 53°54' E 009°09'0 0.0
2017-Apr-20 14:59N 53°54' E 009°09'0 0.0
2017-Apr-20 14:29N 53°54' E 009°09'0 0.0
2017-Apr-20 13:26N 53°54' E 009°09'0 0.0
2017-Apr-20 12:56N 53°54' E 009°09'0 0.0
2017-Apr-20 12:29N 53°54' E 009°09'0 0.0
2017-Apr-20 11:53N 53°54' E 009°09'0 0.0
2017-Apr-20 11:29N 53°54' E 009°09'0 0.0
2017-Apr-20 10:59N 53°54' E 009°09'0 0.0
2017-Apr-20 10:29N 53°54' E 009°09'0 0.0
2017-Apr-20 09:56N 53°54' E 009°09'0 0.0
2017-Apr-20 09:29N 53°54' E 009°09'0 0.0
2017-Apr-20 08:59N 53°54' E 009°09'0 0.0
2017-Apr-20 08:26N 53°54' E 009°09'0 0.0
2017-Apr-20 07:56N 53°54' E 009°09'0 0.0
2017-Apr-20 07:29N 53°54' E 009°09'0 0.0
2017-Apr-20 06:56N 53°54' E 009°09'0 0.0
2017-Apr-20 06:29N 53°54' E 009°09'0 0.0
2017-Apr-20 05:59N 53°54' E 009°09'1 1.4
2017-Apr-20 05:31N 53°54' E 009°09'0 0.7
2017-Apr-20 05:00N 53°53' E 009°09'3 6.9
2017-Apr-20 04:31N 53°52' E 009°03'4 7.6
2017-Apr-20 04:01N 53°51' E 008°57'4 7.5
2017-Apr-20 03:30N 53°50' E 008°51'4 7.0
2017-Apr-20 03:00N 53°51' E 008°45'3 6.7
2017-Apr-20 02:30N 53°54' E 008°42'3 6.0
2017-Apr-20 02:00N 53°56' E 008°39'3 5.8
2017-Apr-20 01:30N 53°58' E 008°35'3 5.7
2017-Apr-20 01:00N 53°58' E 008°30'2 5.0
2017-Apr-20 00:30N 53°59' E 008°26'2 4.5
2017-Apr-20 00:00N 53°59' E 008°22'2 4.5
2017-Apr-19 23:30N 53°59' E 008°18'3 6.0
2017-Apr-19 23:00N 53°59' E 008°13'3 5.7
2017-Apr-19 22:30N 53°59' E 008°08'3 5.4
2017-Apr-19 22:00N 53°58' E 008°04'2 4.7
2017-Apr-19 21:30N 53°58' E 007°60'2 3.8
2017-Apr-19 21:00N 53°57' E 007°57'2 4.0
2017-Apr-19 20:30N 53°57' E 007°53'2 3.9
2017-Apr-19 20:00N 53°56' E 007°50'95 4.6
2017-Apr-18 23:27N 53°31' E 005°14'2 3.8
2017-Apr-18 22:59N 53°31' E 005°12'2 4.1
2017-Apr-18 22:29N 53°30' E 005°08'2 4.3
2017-Apr-18 22:00N 53°29' E 005°05'2 4.4
2017-Apr-18 21:30N 53°28' E 005°02'3 4.1
2017-Apr-18 20:46N 53°27' E 004°57'1 3.8
2017-Apr-18 20:28N 53°27' E 004°55'21 3.5
2017-Apr-18 14:30N 53°11' E 004°32'3 2.4
2017-Apr-18 13:14N 53°09' E 004°29'0 1.5
2017-Apr-18 12:59N 53°08' E 004°29'1 2.1
2017-Apr-18 12:28N 53°07' E 004°28'1 2.8
2017-Apr-18 11:59N 53°06' E 004°27'2 3.6
2017-Apr-18 11:19N 53°04' E 004°25'3 4.1
2017-Apr-18 10:35N 53°01' E 004°23'0 3.8
2017-Apr-18 10:30N 53°01' E 004°23'2 4.4
2017-Apr-18 10:00N 52°59' E 004°22'3 4.9
2017-Apr-18 09:28N 52°57' E 004°20'2 4.5
2017-Apr-18 09:00N 52°55' E 004°18'2 4.6
2017-Apr-18 08:30N 52°53' E 004°16'3 5.1
2017-Apr-18 08:00N 52°51' E 004°13'2 4.9
2017-Apr-18 07:30N 52°49' E 004°11'2 5.0
2017-Apr-18 07:00N 52°47' E 004°08'2 5.0
2017-Apr-18 06:30N 52°45' E 004°06'2 4.9
2017-Apr-18 06:00N 52°43' E 004°03'2 4.6
2017-Apr-18 05:30N 52°41' E 004°01'2 4.4
2017-Apr-18 05:00N 52°40' E 003°58'2 4.0
2017-Apr-18 04:30N 52°38' E 003°56'2 4.0
2017-Apr-18 04:00N 52°37' E 003°54'2 4.2
2017-Apr-18 03:30N 52°35' E 003°52'2 3.7
2017-Apr-18 03:01N 52°34' E 003°49'2 4.1
2017-Apr-18 02:27N 52°32' E 003°47'77 4.0
2017-Apr-17 07:08N 51°42' E 002°11'2 3.3
2017-Apr-17 06:40N 51°41' E 002°10'1 3.4
2017-Apr-17 06:30N 51°41' E 002°09'2 4.1
2017-Apr-17 06:00N 51°39' E 002°07'2 4.6
2017-Apr-17 05:30N 51°38' E 002°04'2 4.6
2017-Apr-17 05:00N 51°36' E 002°01'2 3.3
2017-Apr-17 04:30N 51°36' E 001°59'2 3.2
2017-Apr-17 04:01N 51°36' E 001°56'2 4.4
2017-Apr-17 03:30N 51°34' E 001°53'3 5.5
2017-Apr-17 03:00N 51°33' E 001°50'3 5.6
2017-Apr-17 02:31N 51°32' E 001°45'3 5.1
2017-Apr-17 02:00N 51°31' E 001°41'3 6.2
2017-Apr-17 01:30N 51°30' E 001°37'3 6.0
2017-Apr-17 01:01N 51°29' E 001°32'3 5.3
2017-Apr-17 00:30N 51°29' E 001°28'3 5.5
2017-Apr-17 00:00N 51°28' E 001°24'3 5.6
2017-Apr-16 23:30N 51°29' E 001°19'3 6.1
2017-Apr-16 23:00N 51°29' E 001°14'3 6.2
2017-Apr-16 22:30N 51°29' E 001°09'3 6.7
2017-Apr-16 22:00N 51°29' E 001°04'4 7.9
2017-Apr-16 21:30N 51°29' E 000°58'4 7.4
2017-Apr-16 21:00N 51°29' E 000°52'4 8.8
2017-Apr-16 20:30N 51°30' E 000°45'5 9.2
2017-Apr-16 20:00N 51°30' E 000°37'5 9.6
2017-Apr-16 19:30N 51°30' E 000°30'4 8.7
2017-Apr-16 19:01N 51°27' E 000°25'4 8.4
2017-Apr-16 18:30N 51°28' E 000°18'4 8.2
2017-Apr-16 18:00N 51°29' E 000°12'4 8.0
2017-Apr-16 17:30N 51°31' E 000°06'3 6.2
2017-Apr-16 17:00N 51°30' E 000°01'1 0.6
2017-Apr-16 15:30N 51°29' W 000°00'3 5.3
2017-Apr-16 15:00N 51°30' E 000°04'0 0.1
2017-Apr-16 12:20N 51°30' E 000°04'0 0.0
2017-Apr-16 07:20N 51°30' E 000°04'0 0.0
2017-Apr-16 06:56N 51°30' E 000°04'0 0.0
2017-Apr-16 04:05N 51°30' E 000°04'0 0.0
2017-Apr-16 03:44N 51°30' E 000°04'0 0.0
2017-Apr-16 01:56N 51°30' E 000°04'0 0.0
2017-Apr-16 01:26N 51°30' E 000°04'0 0.0
2017-Apr-16 00:53N 51°30' E 000°04'0 0.0
2017-Apr-16 00:26N 51°30' E 000°04'0 0.0
2017-Apr-15 23:47N 51°30' E 000°04'0 0.0
2017-Apr-15 23:26N 51°30' E 000°04'0 0.0
2017-Apr-15 22:59N 51°30' E 000°04'0 0.0
2017-Apr-15 22:23N 51°30' E 000°04'0 0.0
2017-Apr-15 21:02N 51°30' E 000°04'0 0.0
2017-Apr-15 20:56N 51°30' E 000°04'0 0.0
2017-Apr-15 20:29N 51°30' E 000°04'0 0.0
2017-Apr-15 12:14N 51°30' E 000°04'0 0.0
2017-Apr-15 10:08N 51°30' E 000°04'0 0.0
2017-Apr-15 09:50N 51°30' E 000°04'0 0.0
2017-Apr-15 08:59N 51°30' E 000°04'0 0.0
2017-Apr-15 08:17N 51°30' E 000°04'0 0.0
2017-Apr-15 07:56N 51°30' E 000°04'0 0.0
2017-Apr-15 01:41N 51°30' E 000°04'0 0.0
2017-Apr-15 01:17N 51°30' E 000°04'0 0.0
2017-Apr-15 00:56N 51°30' E 000°04'0 0.0
2017-Apr-15 00:20N 51°30' E 000°04'0 0.0
2017-Apr-14 23:17N 51°30' E 000°04'0 0.0
2017-Apr-14 22:56N 51°30' E 000°04'0 0.0
2017-Apr-14 22:26N 51°30' E 000°04'0 0.0
2017-Apr-14 21:08N 51°30' E 000°04'0 0.0
2017-Apr-14 20:53N 51°30' E 000°04'0 0.0
2017-Apr-14 16:05N 51°30' E 000°04'0 0.0
2017-Apr-14 15:53N 51°30' E 000°04'0 0.0
2017-Apr-14 15:29N 51°30' E 000°04'0 0.0
2017-Apr-14 14:53N 51°30' E 000°04'0 0.0
2017-Apr-14 13:53N 51°30' E 000°04'0 0.0
2017-Apr-14 13:26N 51°30' E 000°04'0 0.8
2017-Apr-14 13:00N 51°30' E 000°04'0 0.1
2017-Apr-14 12:30N 51°30' E 000°04'2 4.5
2017-Apr-14 12:00N 51°30' E 000°00'1 0.1
2017-Apr-14 02:32N 51°29' W 000°00'1 0.1
2017-Apr-13 11:56N 51°30' W 000°00'3 6.7
2017-Apr-13 11:31N 51°30' E 000°04'4 7.8
2017-Apr-13 11:00N 51°30' E 000°10'4 8.4
2017-Apr-13 10:30N 51°28' E 000°16'4 7.2
2017-Apr-13 10:00N 51°27' E 000°22'3 6.7
2017-Apr-13 09:31N 51°28' E 000°27'3 6.6
2017-Apr-13 09:01N 51°30' E 000°31'3 6.6
2017-Apr-13 08:30N 51°30' E 000°36'3 6.2
2017-Apr-13 08:00N 51°30' E 000°41'3 6.0
2017-Apr-13 07:30N 51°30' E 000°46'3 5.5
2017-Apr-13 06:59N 51°30' E 000°50'3 5.5
2017-Apr-13 06:30N 51°30' E 000°54'2 4.2
2017-Apr-13 06:00N 51°30' E 000°58'0 0.1
2017-Apr-13 04:30N 51°30' E 000°58'0 0.0
2017-Apr-13 02:36N 51°30' E 000°58'0 0.1
2017-Apr-13 02:30N 51°30' E 000°58'0 0.0
2017-Apr-13 01:57N 51°30' E 000°58'0 0.1
2017-Apr-13 01:30N 51°30' E 000°58'0 0.0
2017-Apr-12 22:54N 51°30' E 000°58'0 0.0
2017-Apr-12 22:24N 51°30' E 000°58'0 0.0
2017-Apr-12 22:00N 51°30' E 000°58'0 0.0
2017-Apr-12 21:30N 51°30' E 000°58'0 0.0
2017-Apr-12 20:54N 51°30' E 000°58'0 0.1
2017-Apr-12 20:27N 51°30' E 000°58'0 0.1
2017-Apr-12 20:00N 51°30' E 000°58'0 0.0
2017-Apr-12 18:42N 51°30' E 000°58'0 0.0
2017-Apr-12 16:45N 51°30' E 000°58'0 0.0
2017-Apr-12 13:30N 51°30' E 000°58'0 0.1
2017-Apr-12 13:00N 51°30' E 000°58'0 0.1
2017-Apr-12 12:24N 51°30' E 000°58'0 0.1
2017-Apr-12 12:00N 51°30' E 000°58'0 0.2
2017-Apr-12 11:30N 51°30' E 000°58'0 0.1
2017-Apr-12 11:00N 51°30' E 000°58'0 0.0
2017-Apr-12 10:30N 51°30' E 000°58'0 0.0
2017-Apr-12 10:00N 51°30' E 000°58'0 0.1
2017-Apr-12 09:31N 51°30' E 000°58'1 2.4
2017-Apr-12 09:00N 51°29' E 000°57'3 6.0
2017-Apr-12 08:30N 51°29' E 001°02'3 5.3
2017-Apr-12 08:00N 51°30' E 001°06'2 4.9
2017-Apr-12 07:30N 51°29' E 001°10'2 4.9
2017-Apr-12 07:00N 51°29' E 001°14'2 4.7
2017-Apr-12 06:30N 51°29' E 001°17'2 4.2
2017-Apr-12 06:00N 51°29' E 001°21'2 3.7
2017-Apr-12 05:28N 51°28' E 001°24'1 3.2
2017-Apr-12 05:00N 51°28' E 001°26'1 2.7
2017-Apr-12 04:31N 51°28' E 001°28'2 3.3
2017-Apr-12 04:00N 51°26' E 001°30'2 4.0
2017-Apr-12 03:30N 51°25' E 001°32'2 4.7
2017-Apr-12 03:00N 51°23' E 001°34'3 5.3
2017-Apr-12 02:31N 51°21' E 001°37'3 6.1
2017-Apr-12 02:00N 51°18' E 001°39'3 6.6
2017-Apr-12 01:31N 51°15' E 001°42'4 7.8
2017-Apr-12 01:00N 51°11' E 001°43'4 8.3
2017-Apr-12 00:30N 51°07' E 001°42'510.0
2017-Apr-12 00:01N 51°04' E 001°37'5 9.2
2017-Apr-11 23:31N 51°01' E 001°31'4 8.3
2017-Apr-11 23:01N 50°58' E 001°27'4 8.3
2017-Apr-11 22:28N 50°53' E 001°24'5 8.6
2017-Apr-11 21:51N 50°48' E 001°22'53 5.9
2017-Apr-11 12:50N 50°21' E 000°10'2 6.1
2017-Apr-11 12:28N 50°21' E 000°07'3 6.6
2017-Apr-11 12:00N 50°20' E 000°02'4 7.0
2017-Apr-11 11:22N 50°19' W 000°05'2 5.3
2017-Apr-11 10:59N 50°18' W 000°08'3 3.5
2017-Apr-11 10:12N 50°18' W 000°12'1 4.4
2017-Apr-11 09:57N 50°17' W 000°14'  

Dump ship's entire track history